createdAt,value
2023-01-19T00:00:34.989Z,90824.69
2023-01-19T00:03:05.106Z,90829.19
2023-01-19T00:05:33.884Z,90799.56
2023-01-19T00:08:14.800Z,90822.78
2023-01-19T00:10:47.064Z,90814.19
2023-01-19T00:13:15.322Z,90826.94
2023-01-19T00:15:49.249Z,90813.81
2023-01-19T00:18:15.980Z,90828.81
2023-01-19T00:20:45.556Z,90808.97
2023-01-19T00:23:13.187Z,90818.31
2023-01-19T00:25:42.861Z,90820.19
2023-01-19T00:28:15.349Z,90819.47
2023-01-19T00:30:42.833Z,90803.72
2023-01-19T00:33:10.917Z,90817.19
2023-01-19T00:35:37.692Z,90811.22
2023-01-19T00:38:04.393Z,90809.69
2023-01-19T00:40:31.069Z,90815.31
2023-01-19T00:42:59.000Z,90844.16
2023-01-19T00:45:26.143Z,90823.56
2023-01-19T00:47:57.361Z,90830.28
2023-01-19T00:50:28.782Z,90828.81
2023-01-19T00:52:57.085Z,90846.41
2023-01-19T00:55:24.367Z,90807.44
2023-01-19T00:57:51.661Z,90835.19
2023-01-19T01:00:22.317Z,90840.44
2023-01-19T01:02:50.861Z,90817.94
2023-01-19T01:05:18.653Z,90823.94
2023-01-19T01:07:45.982Z,90837.81
2023-01-19T01:10:19.040Z,90826.94
2023-01-19T01:13:20.554Z,90829.94
2023-01-19T01:15:33.292Z,90819.81
2023-01-19T01:17:59.959Z,90827.66
2023-01-19T01:20:37.858Z,90820.94
2023-01-19T01:23:04.753Z,90823.94
2023-01-19T01:25:34.110Z,90825.44
2023-01-19T01:28:00.885Z,90826.19
2023-01-19T01:30:27.619Z,90822.44
2023-01-19T01:32:54.886Z,90845.31
2023-01-19T01:35:21.597Z,90824.69
2023-01-19T01:37:48.259Z,90826.94
2023-01-19T01:40:17.731Z,90833.69
2023-01-19T01:42:45.805Z,90825.06
2023-01-19T01:45:35.163Z,90837.06
2023-01-19T01:48:10.069Z,90835.94
2023-01-19T01:51:02.089Z,90835.19
2023-01-19T01:53:30.909Z,90838.94
2023-01-19T01:55:59.928Z,90845.69
2023-01-19T01:58:27.170Z,90835.56
2023-01-19T02:01:13.734Z,90833.69
2023-01-19T02:03:40.656Z,90843.06
2023-01-19T02:06:08.392Z,90829.56
2023-01-19T02:09:03.796Z,90828.81
2023-01-19T02:11:50.626Z,90813.47
2023-01-19T02:14:18.997Z,90826.56
2023-01-19T02:16:46.728Z,90822.81
2023-01-19T02:19:18.374Z,90812.34
2023-01-19T02:21:57.487Z,90826.97
2023-01-19T02:24:24.990Z,90829.59
2023-01-19T02:26:52.123Z,90820.56
2023-01-19T02:29:20.997Z,90820.19
2023-01-19T02:31:48.001Z,90820.59
2023-01-19T02:34:20.659Z,90804.47
2023-01-19T02:37:06.688Z,90819.47
2023-01-19T02:39:43.024Z,90808.22
2023-01-19T02:42:15.250Z,90816.09
2023-01-19T02:44:46.423Z,90805.22
2023-01-19T02:47:13.898Z,90833.31
2023-01-19T02:49:40.788Z,90826.59
2023-01-19T02:52:15.317Z,90798.50
2023-01-19T02:54:51.069Z,90813.09
2023-01-19T02:57:27.409Z,90797.34
2023-01-19T03:00:19.807Z,90795.88
2023-01-19T03:03:06.085Z,90807.47
2023-01-19T03:05:54.394Z,90805.22
2023-01-19T03:08:33.211Z,90789.50
2023-01-19T03:11:08.229Z,90795.50
2023-01-19T03:13:52.084Z,90792.88
2023-01-19T03:16:33.068Z,90812.34
2023-01-19T03:19:17.827Z,90775.63
2023-01-19T03:21:48.633Z,90797.75
2023-01-19T03:24:18.127Z,90808.22
2023-01-19T03:26:50.084Z,90810.84
2023-01-19T03:29:19.816Z,90802.97
2023-01-19T03:31:49.950Z,90795.88
2023-01-19T03:34:22.051Z,90792.50
2023-01-19T03:36:55.690Z,90802.97
2023-01-19T03:39:24.679Z,90797.75
2023-01-19T03:41:56.654Z,90813.47
2023-01-19T03:44:26.373Z,90809.38
2023-01-19T03:46:53.609Z,90793.63
2023-01-19T03:49:20.366Z,90802.59
2023-01-19T03:51:47.338Z,90820.59
2023-01-19T03:54:14.090Z,90823.56
2023-01-19T03:56:40.793Z,90814.22
2023-01-19T03:59:07.514Z,90789.50
2023-01-19T04:01:34.371Z,90802.22
2023-01-19T04:04:01.132Z,90808.97
2023-01-19T04:06:28.335Z,90805.22
2023-01-19T04:08:55.098Z,90801.84
2023-01-19T04:11:21.801Z,90811.22
2023-01-19T04:13:48.732Z,90809.69
2023-01-19T04:16:20.044Z,90810.47
2023-01-19T04:18:47.443Z,90808.97
2023-01-19T04:21:14.633Z,90802.22
2023-01-19T04:23:41.394Z,90818.34
2023-01-19T04:26:08.813Z,90819.47
2023-01-19T04:28:37.236Z,90809.34
2023-01-19T04:31:05.120Z,90823.19
2023-01-19T04:33:32.502Z,90817.56
2023-01-19T04:35:59.181Z,90830.66
2023-01-19T04:38:26.767Z,90835.56
2023-01-19T04:40:54.374Z,90818.69
2023-01-19T04:43:22.636Z,90849.38
2023-01-19T04:45:49.751Z,90842.69
2023-01-19T04:48:18.482Z,90836.31
2023-01-19T04:50:45.758Z,90856.88
2023-01-19T04:53:13.886Z,90853.91
2023-01-19T04:55:40.751Z,90856.13
2023-01-19T04:58:09.711Z,90842.69
2023-01-19T05:00:37.548Z,90857.25
2023-01-19T05:03:05.748Z,90844.91
2023-01-19T05:05:33.339Z,90846.41
2023-01-19T05:08:00.658Z,90850.91
2023-01-19T05:10:27.380Z,90857.63
2023-01-19T05:12:54.041Z,90869.59
2023-01-19T05:15:21.963Z,90850.91
2023-01-19T05:17:48.612Z,90824.69
2023-01-19T05:20:16.543Z,90850.50
2023-01-19T05:22:48.762Z,90859.06
2023-01-19T05:25:15.458Z,90856.09
2023-01-19T05:27:42.460Z,90862.84
2023-01-19T05:30:10.143Z,90867.66
2023-01-19T05:32:36.820Z,90856.06
2023-01-19T05:35:03.699Z,90862.78
2023-01-19T05:37:32.664Z,90859.75
2023-01-19T05:39:59.354Z,90862.03
2023-01-19T05:42:26.003Z,90866.13
2023-01-19T05:44:52.897Z,90865.03
2023-01-19T05:47:19.630Z,90866.97
2023-01-19T05:49:46.235Z,90875.53
2023-01-19T05:52:12.892Z,90872.16
2023-01-19T05:54:40.518Z,90870.28
2023-01-19T05:57:07.836Z,90876.25
2023-01-19T05:59:34.766Z,90874.03
2023-01-19T06:02:01.565Z,90890.56
2023-01-19T06:04:28.386Z,90869.56
2023-01-19T06:06:55.181Z,90886.06
2023-01-19T06:09:21.881Z,90886.81
2023-01-19T06:11:49.060Z,90895.44
2023-01-19T06:14:15.939Z,90891.31
2023-01-19T06:16:42.700Z,90895.44
2023-01-19T06:19:09.725Z,90905.56
2023-01-19T06:21:36.337Z,90912.28
2023-01-19T06:24:03.616Z,90902.22
2023-01-19T06:26:30.468Z,90911.59
2023-01-19T06:28:57.191Z,90914.53
2023-01-19T06:31:23.968Z,90915.28
2023-01-19T06:33:50.880Z,90914.53
2023-01-19T06:36:17.617Z,90925.78
2023-01-19T06:38:44.397Z,90928.81
2023-01-19T06:41:11.298Z,90919.06
2023-01-19T06:43:38.030Z,90911.59
2023-01-19T06:46:04.991Z,90922.78
2023-01-19T06:48:32.848Z,90922.81
2023-01-19T06:51:00.029Z,90920.59
2023-01-19T06:53:28.355Z,90926.22
2023-01-19T06:55:59.728Z,90933.34
2023-01-19T06:58:27.605Z,90937.13
2023-01-19T07:00:54.773Z,90928.13
2023-01-19T07:03:23.141Z,90932.59
2023-01-19T07:05:53.673Z,90934.13
2023-01-19T07:08:21.110Z,90925.09
2023-01-19T07:11:22.167Z,90936.00
2023-01-19T07:13:35.937Z,90947.63
2023-01-19T07:16:11.621Z,90946.09
2023-01-19T07:18:39.678Z,90945.31
2023-01-19T07:21:07.135Z,90946.81
2023-01-19T07:23:34.191Z,90950.81
2023-01-19T07:26:01.912Z,90952.75
2023-01-19T07:28:29.662Z,90954.09
2023-01-19T07:30:56.472Z,90941.22
2023-01-19T07:33:25.089Z,90942.72
2023-01-19T07:35:52.344Z,90936.72
2023-01-19T07:38:20.384Z,90940.25
2023-01-19T07:40:47.513Z,90941.44
2023-01-19T07:43:14.933Z,90925.25
2023-01-19T07:45:42.047Z,90932.13
2023-01-19T07:48:08.907Z,90935.06
2023-01-19T07:50:35.587Z,90922.06
2023-01-19T07:53:07.513Z,90934.94
2023-01-19T07:55:34.589Z,90918.19
2023-01-19T07:58:01.362Z,90924.16
2023-01-19T08:00:28.119Z,90917.91
2023-01-19T08:03:00.459Z,90926.91
2023-01-19T08:05:29.266Z,90925.19
2023-01-19T08:07:57.718Z,90947.38
2023-01-19T08:10:26.784Z,90943.59
2023-01-19T08:12:54.518Z,90925.84
2023-01-19T08:15:24.106Z,90923.66
2023-01-19T08:18:09.385Z,90933.06
2023-01-19T08:20:36.900Z,90940.03
2023-01-19T08:23:04.981Z,90938.09
2023-01-19T08:25:42.378Z,90952.63
2023-01-19T08:28:09.596Z,90967.19
2023-01-19T08:30:36.777Z,90940.53
2023-01-19T08:33:08.351Z,90988.34
2023-01-19T08:35:38.329Z,90932.66
2023-01-19T08:38:06.726Z,90948.28
2023-01-19T08:40:37.943Z,90946.41
2023-01-19T08:43:08.023Z,90948.03
2023-01-19T08:45:41.646Z,90946.50
2023-01-19T08:48:08.592Z,90957.25
2023-01-19T08:50:35.379Z,90942.41
2023-01-19T08:53:06.156Z,90954.00
2023-01-19T08:55:35.852Z,90968.03
2023-01-19T08:58:06.674Z,90931.72
2023-01-19T09:00:34.396Z,90928.09
2023-01-19T09:03:03.592Z,90928.81
2023-01-19T09:05:39.000Z,90932.09
2023-01-19T09:08:08.268Z,90953.00
2023-01-19T09:10:37.808Z,90932.78
2023-01-19T09:13:05.786Z,90922.44
2023-01-19T09:15:35.773Z,90948.13
2023-01-19T09:18:04.690Z,90991.72
2023-01-19T09:20:31.609Z,90936.63
2023-01-19T09:22:58.939Z,90912.56
2023-01-19T09:25:25.862Z,90918.69
2023-01-19T09:27:53.101Z,90968.97
2023-01-19T09:30:21.080Z,90929.31
2023-01-19T09:32:47.775Z,90912.59
2023-01-19T09:35:14.681Z,90922.56
2023-01-19T09:37:45.536Z,90907.22
2023-01-19T09:40:12.712Z,90923.44
2023-01-19T09:42:45.082Z,90921.75
2023-01-19T09:45:17.963Z,90951.47
2023-01-19T09:47:47.035Z,90926.31
2023-01-19T09:50:28.484Z,90914.22
2023-01-19T09:53:01.496Z,90933.72
2023-01-19T09:55:28.699Z,90908.06
2023-01-19T09:57:55.497Z,90930.69
2023-01-19T10:00:24.348Z,90909.59
2023-01-19T10:03:00.785Z,90921.53
2023-01-19T10:05:42.466Z,90921.31
2023-01-19T10:08:27.637Z,90943.41
2023-01-19T10:10:56.794Z,90917.16
2023-01-19T10:13:48.952Z,90901.41
2023-01-19T10:16:45.756Z,90883.25
2023-01-19T10:19:27.349Z,90888.81
2023-01-19T10:21:58.140Z,90874.69
2023-01-19T10:24:33.349Z,90889.88
2023-01-19T10:27:00.682Z,90893.38
2023-01-19T10:29:38.851Z,90910.84
2023-01-19T10:32:10.284Z,90922.72
2023-01-19T10:34:37.262Z,90904.97
2023-01-19T10:37:32.265Z,90921.28
2023-01-19T10:40:10.908Z,90917.22
2023-01-19T10:42:40.509Z,90907.50
2023-01-19T10:45:19.075Z,90892.31
2023-01-19T10:47:47.541Z,90909.97
2023-01-19T10:50:27.821Z,90922.50
2023-01-19T10:53:00.914Z,90911.91
2023-01-19T10:55:34.895Z,90930.59
2023-01-19T10:58:02.191Z,90948.06
2023-01-19T11:00:31.889Z,90930.09
2023-01-19T11:02:58.828Z,90926.69
2023-01-19T11:05:31.746Z,90940.31
2023-01-19T11:07:58.915Z,90943.38
2023-01-19T11:10:28.541Z,90926.06
2023-01-19T11:13:01.815Z,90940.31
2023-01-19T11:15:49.433Z,90920.22
2023-01-19T11:18:38.924Z,90933.81
2023-01-19T11:21:09.458Z,90933.69
2023-01-19T11:23:42.877Z,90927.34
2023-01-19T11:26:16.448Z,90927.59
2023-01-19T11:28:48.061Z,90932.44
2023-01-19T11:31:14.848Z,90924.09
2023-01-19T11:33:50.549Z,90923.69
2023-01-19T11:36:36.463Z,90912.72
2023-01-19T11:39:28.287Z,90914.91
2023-01-19T11:42:06.432Z,90912.63
2023-01-19T11:44:36.723Z,90913.13
2023-01-19T11:47:12.464Z,90919.88
2023-01-19T11:49:43.988Z,90908.22
2023-01-19T11:52:33.973Z,90908.94
2023-01-19T11:55:14.957Z,90917.69
2023-01-19T11:57:51.130Z,90906.88
2023-01-19T12:00:34.223Z,90891.56
2023-01-19T12:03:17.940Z,90895.50
2023-01-19T12:05:51.811Z,90918.22
2023-01-19T12:08:27.152Z,90915.84
2023-01-19T12:10:57.596Z,90901.34
2023-01-19T12:13:26.624Z,90920.34
2023-01-19T12:16:05.995Z,90921.66
2023-01-19T12:18:38.933Z,90913.38
2023-01-19T12:21:05.799Z,90908.13
2023-01-19T12:23:47.475Z,90915.03
2023-01-19T12:26:16.885Z,90913.91
2023-01-19T12:28:47.490Z,90897.34
2023-01-19T12:31:20.118Z,90906.84
2023-01-19T12:33:47.487Z,90896.22
2023-01-19T12:36:17.554Z,90907.47
2023-01-19T12:38:55.293Z,90915.06
2023-01-19T12:41:39.886Z,90914.31
2023-01-19T12:44:14.008Z,90900.84
2023-01-19T12:46:43.854Z,90910.16
2023-01-19T12:49:34.205Z,90908.69
2023-01-19T12:52:29.115Z,90904.63
2023-01-19T12:54:58.708Z,90905.56
2023-01-19T12:57:46.768Z,90915.31
2023-01-19T13:00:22.512Z,90912.28
2023-01-19T13:03:26.833Z,90905.50
2023-01-19T13:05:55.419Z,90905.88
2023-01-19T13:08:27.442Z,90911.16
2023-01-19T13:11:00.300Z,90911.50
2023-01-19T13:13:36.801Z,90912.28
2023-01-19T13:16:19.014Z,90897.59
2023-01-19T13:18:53.678Z,90905.16
2023-01-19T13:21:29.615Z,90903.66
2023-01-19T13:23:58.841Z,90897.28
2023-01-19T13:26:38.804Z,90905.56
2023-01-19T13:29:07.938Z,90906.28
2023-01-19T13:31:36.789Z,90901.34
2023-01-19T13:34:05.523Z,90897.97
2023-01-19T13:36:37.639Z,90900.28
2023-01-19T13:39:07.838Z,90908.50
2023-01-19T13:41:40.615Z,90907.81
2023-01-19T13:44:52.377Z,90908.22
2023-01-19T13:47:25.399Z,90911.56
2023-01-19T13:49:58.108Z,90892.44
2023-01-19T13:52:27.550Z,90911.19
2023-01-19T13:54:56.540Z,90908.94
2023-01-19T13:57:43.630Z,90924.31
2023-01-19T14:00:14.343Z,90911.19
2023-01-19T14:02:50.533Z,90904.06
2023-01-19T14:05:35.090Z,90901.09
2023-01-19T14:08:13.860Z,90903.34
2023-01-19T14:10:42.110Z,90907.88
2023-01-19T14:13:35.506Z,90887.59
2023-01-19T14:16:08.638Z,90894.38
2023-01-19T14:18:36.568Z,90878.66
2023-01-19T14:21:13.605Z,90883.88
2023-01-19T14:23:47.397Z,90879.03
2023-01-19T14:26:48.376Z,90887.28
2023-01-19T14:29:32.886Z,90893.63
2023-01-19T14:32:13.953Z,90890.28
2023-01-19T14:35:05.113Z,90888.38
2023-01-19T14:37:37.403Z,90898.16
2023-01-19T14:40:18.751Z,90885.75
2023-01-19T14:42:50.872Z,90889.50
2023-01-19T14:45:40.714Z,90888.00
2023-01-19T14:48:22.245Z,90874.91
2023-01-19T14:51:02.962Z,90883.13
2023-01-19T14:53:37.250Z,90892.50
2023-01-19T14:56:05.881Z,90877.16
2023-01-19T14:58:35.309Z,90879.38
2023-01-19T15:01:03.060Z,90876.03
2023-01-19T15:03:44.878Z,90881.66
2023-01-19T15:06:31.744Z,90882.00
2023-01-19T15:08:58.633Z,90871.13
2023-01-19T15:11:32.918Z,90877.88
2023-01-19T15:14:01.101Z,90883.84
2023-01-19T15:16:29.954Z,90892.84
2023-01-19T15:18:56.687Z,90881.59
2023-01-19T15:21:26.506Z,90880.84
2023-01-19T15:23:54.719Z,90885.31
2023-01-19T15:26:26.350Z,90888.22
2023-01-19T15:28:53.490Z,90884.47
2023-01-19T15:31:22.763Z,90894.19
2023-01-19T15:33:49.868Z,90881.50
2023-01-19T15:36:19.728Z,90871.03
2023-01-19T15:38:47.237Z,90870.25
2023-01-19T15:41:18.235Z,90877.38
2023-01-19T15:43:44.960Z,90877.03
2023-01-19T15:46:15.574Z,90880.03
2023-01-19T15:48:42.568Z,90880.34
2023-01-19T15:51:13.963Z,90881.44
2023-01-19T15:53:41.617Z,90894.88
2023-01-19T15:56:21.141Z,90905.38
2023-01-19T15:58:47.973Z,90882.22
2023-01-19T16:01:22.737Z,90891.22
2023-01-19T16:03:50.546Z,90903.53
2023-01-19T16:06:18.232Z,90894.56
2023-01-19T16:08:45.366Z,90897.59
2023-01-19T16:11:15.030Z,90912.88
2023-01-19T16:13:45.804Z,90909.88
2023-01-19T16:16:18.205Z,90912.16
2023-01-19T16:18:45.933Z,90911.47
2023-01-19T16:21:12.645Z,90922.56
2023-01-19T16:23:39.341Z,90912.28
2023-01-19T16:26:22.115Z,90901.81
2023-01-19T16:28:49.102Z,90905.63
2023-01-19T16:31:16.761Z,90922.78
2023-01-19T16:33:45.040Z,90919.03
2023-01-19T16:36:29.906Z,90913.00
2023-01-19T16:39:08.139Z,90923.44
2023-01-19T16:41:35.469Z,90924.94
2023-01-19T16:44:02.529Z,90924.91
2023-01-19T16:46:33.977Z,90914.47
2023-01-19T16:49:22.392Z,90921.88
2023-01-19T16:51:49.269Z,90917.75
2023-01-19T16:54:26.223Z,90923.78
2023-01-19T16:56:54.678Z,90911.03
2023-01-19T16:59:22.449Z,90916.66
2023-01-19T17:01:51.094Z,90920.03
2023-01-19T17:04:19.840Z,90913.66
2023-01-19T17:06:46.841Z,90906.94
2023-01-19T17:09:13.994Z,90903.22
2023-01-19T17:11:41.169Z,90882.25
2023-01-19T17:14:12.334Z,90891.22
2023-01-19T17:16:39.058Z,90897.47
2023-01-19T17:19:07.600Z,90890.72
2023-01-19T17:21:35.560Z,90896.31
2023-01-19T17:24:02.271Z,90897.44
2023-01-19T17:26:31.163Z,90895.59
2023-01-19T17:28:59.813Z,90897.09
2023-01-19T17:31:26.966Z,90881.69
2023-01-19T17:33:53.853Z,90868.53
2023-01-19T17:36:22.891Z,90870.47
2023-01-19T17:38:50.321Z,90844.91
2023-01-19T17:41:28.608Z,90870.88
2023-01-19T17:43:56.179Z,90863.75
2023-01-19T17:46:25.265Z,90865.53
2023-01-19T17:48:58.456Z,90861.03
2023-01-19T17:51:26.132Z,90864.81
2023-01-19T17:53:53.785Z,90877.47
2023-01-19T17:56:22.838Z,90881.94
2023-01-19T17:58:49.805Z,90882.72
2023-01-19T18:01:18.906Z,90860.31
2023-01-19T18:03:46.139Z,90864.09
2023-01-19T18:06:13.647Z,90884.25
2023-01-19T18:08:43.069Z,90867.44
2023-01-19T18:11:10.940Z,90874.53
2023-01-19T18:13:38.867Z,90857.44
2023-01-19T18:16:09.279Z,90870.13
2023-01-19T18:18:36.592Z,90863.88
2023-01-19T18:21:09.132Z,90848.56
2023-01-19T18:23:36.762Z,90846.00
2023-01-19T18:26:09.695Z,90816.38
2023-01-19T18:28:37.110Z,90847.91
2023-01-19T18:31:10.442Z,90858.72
2023-01-19T18:33:38.909Z,90850.91
2023-01-19T18:36:06.931Z,90826.91
2023-01-19T18:38:34.955Z,90856.16
2023-01-19T18:41:03.918Z,90870.75
2023-01-19T18:43:31.057Z,90864.41
2023-01-19T18:45:57.860Z,90853.16
2023-01-19T18:48:25.021Z,90853.91
2023-01-19T18:50:54.455Z,90855.78
2023-01-19T18:53:22.083Z,90856.88
2023-01-19T18:56:00.129Z,90850.16
2023-01-19T18:58:29.830Z,90846.03
2023-01-19T19:00:57.786Z,90840.41
2023-01-19T19:03:24.931Z,90843.75
2023-01-19T19:05:51.721Z,90864.66
2023-01-19T19:08:20.748Z,90857.50
2023-01-19T19:10:47.538Z,90863.13
2023-01-19T19:13:16.195Z,90866.44
2023-01-19T19:15:44.518Z,90863.09
2023-01-19T19:18:13.962Z,90862.59
2023-01-19T19:20:43.465Z,90855.97
2023-01-19T19:23:11.746Z,90854.50
2023-01-19T19:25:38.697Z,90826.00
2023-01-19T19:28:05.584Z,90856.19
2023-01-19T19:30:34.434Z,90853.59
2023-01-19T19:33:01.507Z,90846.09
2023-01-19T19:35:28.340Z,90844.63
2023-01-19T19:37:57.743Z,90856.69
2023-01-19T19:40:28.286Z,90853.06
2023-01-19T19:42:58.331Z,90826.19
2023-01-19T19:45:26.089Z,90850.66
2023-01-19T19:47:52.798Z,90835.72
2023-01-19T19:50:19.493Z,90838.72
2023-01-19T19:52:46.516Z,90840.94
2023-01-19T19:55:13.409Z,90852.06
2023-01-19T19:57:40.208Z,90846.50
2023-01-19T20:00:08.310Z,90842.38
2023-01-19T20:02:35.261Z,90846.88
2023-01-19T20:05:01.971Z,90837.13
2023-01-19T20:07:28.718Z,90834.13
2023-01-19T20:09:55.456Z,90834.81
2023-01-19T20:12:22.330Z,90830.03
2023-01-19T20:14:49.337Z,90825.53
2023-01-19T20:17:16.140Z,90828.47
2023-01-19T20:19:43.946Z,90827.38
2023-01-19T20:22:12.741Z,90829.59
2023-01-19T20:24:39.525Z,90822.06
2023-01-19T20:27:06.255Z,90822.84
2023-01-19T20:29:32.911Z,90841.56
2023-01-19T20:31:59.617Z,90838.22
2023-01-19T20:34:32.166Z,90845.31
2023-01-19T20:37:01.784Z,90834.53
2023-01-19T20:39:30.224Z,90824.16
2023-01-19T20:41:57.224Z,90826.84
2023-01-19T20:44:25.737Z,90825.38
2023-01-19T20:46:53.522Z,90796.53
2023-01-19T20:49:20.790Z,90802.16
2023-01-19T20:51:48.417Z,90813.44
2023-01-19T20:54:17.164Z,90800.66
2023-01-19T20:56:44.278Z,90802.91
2023-01-19T20:59:12.276Z,90807.41
2023-01-19T21:01:40.371Z,90802.91
2023-01-19T21:04:07.379Z,90813.69
2023-01-19T21:06:34.433Z,90802.81
2023-01-19T21:09:01.584Z,90796.44
2023-01-19T21:11:28.654Z,90784.53
2023-01-19T21:13:58.454Z,90778.19
2023-01-19T21:16:27.824Z,90775.78
2023-01-19T21:18:55.236Z,90767.22
2023-01-19T21:21:30.400Z,90777.13
2023-01-19T21:24:02.007Z,90782.06
2023-01-19T21:26:33.527Z,90782.13
2023-01-19T21:29:01.484Z,90780.63
2023-01-19T21:31:28.782Z,90781.78
2023-01-19T21:33:56.908Z,90791.19
2023-01-19T21:36:24.658Z,90779.22
2023-01-19T21:38:52.506Z,90765.41
2023-01-19T21:41:19.657Z,90768.72
2023-01-19T21:43:46.808Z,90769.47
2023-01-19T21:46:18.506Z,90769.75
2023-01-19T21:48:46.049Z,90772.75
2023-01-19T21:51:13.847Z,90757.03
2023-01-19T21:53:43.421Z,90750.69
2023-01-19T21:56:11.328Z,90764.09
2023-01-19T21:58:38.273Z,90755.81
2023-01-19T22:01:10.891Z,90775.31
2023-01-19T22:03:37.947Z,90771.91
2023-01-19T22:06:06.479Z,90765.97
2023-01-19T22:08:33.960Z,90772.00
2023-01-19T22:11:12.280Z,90766.03
2023-01-19T22:13:40.130Z,90772.78
2023-01-19T22:16:13.523Z,90775.44
2023-01-19T22:18:42.276Z,90779.19
2023-01-19T22:21:14.989Z,90770.19
2023-01-19T22:23:42.446Z,90777.25
2023-01-19T22:26:11.843Z,90762.28
2023-01-19T22:28:39.087Z,90757.84
2023-01-19T22:31:11.988Z,90741.44
2023-01-19T22:33:39.246Z,90740.72
2023-01-19T22:36:25.800Z,90741.47
2023-01-19T22:38:56.843Z,90760.56
2023-01-19T22:41:27.690Z,90748.25
2023-01-19T22:43:57.069Z,90735.16
2023-01-19T22:46:26.158Z,90752.00
2023-01-19T22:48:53.503Z,90737.06
2023-01-19T22:51:21.333Z,90748.66
2023-01-19T22:53:48.518Z,90749.03
2023-01-19T22:56:15.089Z,90744.16
2023-01-19T22:58:44.333Z,90757.59
2023-01-19T23:01:15.779Z,90744.88
2023-01-19T23:03:43.109Z,90745.63
2023-01-19T23:06:17.601Z,90741.56
2023-01-19T23:08:44.259Z,90735.94
2023-01-19T23:11:13.288Z,90731.09
2023-01-19T23:13:40.496Z,90740.81
2023-01-19T23:16:09.521Z,90728.09
2023-01-19T23:18:36.580Z,90721.34
2023-01-19T23:21:10.918Z,90721.38
2023-01-19T23:23:38.520Z,90733.72
2023-01-19T23:26:11.087Z,90711.63
2023-01-19T23:28:39.284Z,90722.50
2023-01-19T23:31:16.333Z,90725.13
2023-01-19T23:33:44.445Z,90710.50
2023-01-19T23:36:12.732Z,90700.75
2023-01-19T23:38:39.960Z,90700.75
2023-01-19T23:41:07.009Z,90709.41
2023-01-19T23:43:33.770Z,90709.00
2023-01-19T23:46:08.682Z,90709.38
2023-01-19T23:48:36.050Z,90720.59
2023-01-19T23:51:11.046Z,90700.78
2023-01-19T23:53:38.149Z,90674.19
2023-01-19T23:56:11.866Z,90690.69
2023-01-19T23:58:38.858Z,90705.63
